createdAt,value
2022-09-12T00:00:03.957Z,4.08
2022-09-12T00:02:05.475Z,4.08
2022-09-12T00:04:06.856Z,4.08
2022-09-12T00:06:08.416Z,4.08
2022-09-12T00:08:10.178Z,4.08
2022-09-12T00:12:12.581Z,4.08
2022-09-12T00:14:13.530Z,4.08
2022-09-12T00:16:15.458Z,4.08
2022-09-12T00:18:17.278Z,4.08
2022-09-12T00:20:19.205Z,4.08
2022-09-12T00:22:20.878Z,4.08
2022-09-12T00:28:25.815Z,4.08
2022-09-12T00:30:27.330Z,4.08
2022-09-12T00:32:28.912Z,4.08
2022-09-12T00:34:30.793Z,4.08
2022-09-12T00:38:33.201Z,4.08
2022-09-12T00:40:35.028Z,4.08
2022-09-12T00:44:38.024Z,4.08
2022-09-12T00:46:39.365Z,4.08
2022-09-12T00:48:40.942Z,4.07
2022-09-12T00:50:41.992Z,4.07
2022-09-12T00:54:44.729Z,4.08
2022-09-12T00:56:46.323Z,4.07
2022-09-12T00:58:47.738Z,4.08
2022-09-12T01:00:49.300Z,4.07
2022-09-12T01:02:51.148Z,4.07
2022-09-12T01:04:52.442Z,4.07
2022-09-12T01:06:54.324Z,4.07
2022-09-12T01:10:57.819Z,4.07
2022-09-12T01:12:59.695Z,4.07
2022-09-12T01:15:01.557Z,4.07
2022-09-12T01:19:04.020Z,4.07
2022-09-12T01:21:05.408Z,4.07
2022-09-12T01:23:07.346Z,4.07
2022-09-12T01:25:08.767Z,4.07
2022-09-12T01:27:10.635Z,4.07
2022-09-12T01:29:12.348Z,4.07
2022-09-12T01:31:14.198Z,4.07
2022-09-12T01:33:15.889Z,4.07
2022-09-12T01:35:17.333Z,4.07
2022-09-12T01:37:19.203Z,4.06
2022-09-12T01:41:21.719Z,4.07
2022-09-12T01:43:22.726Z,4.06
2022-09-12T01:45:23.863Z,4.06
2022-09-12T01:49:27.215Z,4.06
2022-09-12T01:53:29.613Z,4.07
2022-09-12T01:55:31.401Z,4.06
2022-09-12T01:57:32.335Z,4.06
2022-09-12T01:59:34.081Z,4.06
2022-09-12T02:03:36.722Z,4.06
2022-09-12T02:05:38.157Z,4.06
2022-09-12T02:09:41.016Z,4.06
2022-09-12T02:11:42.299Z,4.06
2022-09-12T02:15:45.399Z,4.06
2022-09-12T02:17:46.918Z,4.06
2022-09-12T02:19:48.365Z,4.06
2022-09-12T02:21:50.094Z,4.06
2022-09-12T02:25:52.864Z,4.06
2022-09-12T02:27:53.893Z,4.06
2022-09-12T02:29:55.811Z,4.06
2022-09-12T02:33:58.892Z,4.06
2022-09-12T02:36:00.549Z,4.06
2022-09-12T02:38:02.082Z,4.06
2022-09-12T02:40:03.489Z,4.06
2022-09-12T02:42:05.003Z,4.06
2022-09-12T02:44:06.102Z,4.06
2022-09-12T02:46:07.840Z,4.06
2022-09-12T02:48:09.304Z,4.06
2022-09-12T02:52:12.901Z,4.06
2022-09-12T02:54:14.443Z,4.06
2022-09-12T02:56:15.805Z,4.05
2022-09-12T02:58:16.893Z,4.05
2022-09-12T03:00:18.367Z,4.05
2022-09-12T03:02:19.919Z,4.05
2022-09-12T03:04:20.995Z,4.06
2022-09-12T03:08:24.775Z,4.06
2022-09-12T03:10:26.728Z,4.06
2022-09-12T03:12:28.016Z,4.05
2022-09-12T03:14:29.918Z,4.05
2022-09-12T03:16:31.118Z,4.05
2022-09-12T03:18:32.326Z,4.05
2022-09-12T03:20:33.755Z,4.05
2022-09-12T03:24:36.714Z,4.05
2022-09-12T03:26:38.285Z,4.05
2022-09-12T03:28:39.525Z,4.05
2022-09-12T03:30:41.271Z,4.05
2022-09-12T03:32:42.882Z,4.05
2022-09-12T03:34:44.208Z,4.05
2022-09-12T03:38:46.743Z,4.05
2022-09-12T03:40:51.443Z,4.05
2022-09-12T03:42:49.858Z,4.05
2022-09-12T03:46:52.523Z,4.05
2022-09-12T03:50:55.333Z,4.05
2022-09-12T03:52:56.937Z,4.05
2022-09-12T03:54:58.713Z,4.05
2022-09-12T03:56:59.865Z,4.05
2022-09-12T03:59:01.422Z,4.05
2022-09-12T04:01:03.157Z,4.04
2022-09-12T04:03:05.034Z,4.05
2022-09-12T04:07:08.641Z,4.05
2022-09-12T04:09:09.629Z,4.05
2022-09-12T04:11:11.012Z,4.04
2022-09-12T04:13:12.474Z,4.04
2022-09-12T04:17:14.668Z,4.04
2022-09-12T04:19:15.726Z,4.04
2022-09-12T04:21:16.674Z,4.04
2022-09-12T04:23:17.806Z,4.04
2022-09-12T04:27:21.379Z,4.04
2022-09-12T04:29:22.695Z,4.04
2022-09-12T04:33:25.631Z,4.04
2022-09-12T04:35:27.150Z,4.04
2022-09-12T04:37:28.516Z,4.04
2022-09-12T04:39:29.546Z,4.04
2022-09-12T04:41:31.346Z,4.04
2022-09-12T04:43:32.979Z,4.04
2022-09-12T04:45:34.886Z,4.04
2022-09-12T04:49:38.557Z,4.04
2022-09-12T04:51:39.893Z,4.04
2022-09-12T04:53:40.872Z,4.04
2022-09-12T04:55:42.592Z,4.04
2022-09-12T04:59:45.438Z,4.04
2022-09-12T05:01:47.234Z,4.04
2022-09-12T05:05:53.284Z,4.04
2022-09-12T05:07:52.202Z,4.04
2022-09-12T05:09:53.093Z,4.04
2022-09-12T05:12:04.838Z,4.04
2022-09-12T05:13:55.969Z,4.04
2022-09-12T05:15:57.660Z,4.04
2022-09-12T05:17:59.395Z,4.04
2022-09-12T05:20:01.300Z,4.04
2022-09-12T05:22:02.759Z,4.04
2022-09-12T05:24:04.046Z,4.04
2022-09-12T05:28:07.156Z,4.03
2022-09-12T05:30:08.301Z,4.03
2022-09-12T05:32:09.978Z,4.03
2022-09-12T05:34:11.015Z,4.04
2022-09-12T05:36:12.630Z,4.03
2022-09-12T05:38:13.872Z,4.04
2022-09-12T05:42:17.441Z,4.04
2022-09-12T05:44:18.428Z,4.03
2022-09-12T05:48:21.692Z,4.03
2022-09-12T05:50:23.522Z,4.03
2022-09-12T05:52:25.216Z,4.03
2022-09-12T05:54:29.567Z,4.03
2022-09-12T05:58:30.003Z,4.03
2022-09-12T06:00:33.596Z,4.03
2022-09-12T06:04:34.731Z,4.03
2022-09-12T06:06:36.326Z,4.03
2022-09-12T06:08:37.258Z,4.03
2022-09-12T06:10:38.307Z,4.03
2022-09-12T06:14:40.432Z,4.03
2022-09-12T06:16:42.377Z,4.03
2022-09-12T06:18:44.139Z,4.03
2022-09-12T06:20:45.082Z,4.03
2022-09-12T06:24:48.566Z,4.04
2022-09-12T06:26:50.240Z,4.04
2022-09-12T06:30:53.805Z,4.04
2022-09-12T06:32:55.525Z,4.04
2022-09-12T06:34:56.798Z,4.04
2022-09-12T06:36:57.773Z,4.05
2022-09-12T06:41:00.609Z,4.05
2022-09-12T06:43:01.635Z,4.05
2022-09-12T06:45:47.070Z,4.06
2022-09-12T06:47:48.601Z,4.06
2022-09-12T06:51:50.715Z,4.06
2022-09-12T06:53:52.185Z,4.06
2022-09-12T06:55:53.443Z,4.06
2022-09-12T06:57:55.236Z,4.06
2022-09-12T06:59:56.757Z,4.06
2022-09-12T07:01:58.027Z,4.06
2022-09-12T07:03:59.693Z,4.07
2022-09-12T07:08:02.688Z,4.07
2022-09-12T07:10:03.847Z,4.07
2022-09-12T07:12:05.414Z,4.07
2022-09-12T07:14:07.030Z,4.07
2022-09-12T07:18:09.253Z,4.08
2022-09-12T07:20:11.095Z,4.07
2022-09-12T07:24:12.998Z,4.08
2022-09-12T07:26:14.603Z,4.08
2022-09-12T07:28:15.672Z,4.09
2022-09-12T07:30:16.684Z,4.09
2022-09-12T07:34:19.167Z,4.09
2022-09-12T07:36:20.597Z,4.09
2022-09-12T07:38:22.111Z,4.1
2022-09-12T07:40:23.509Z,4.1
2022-09-12T07:42:24.828Z,4.1
2022-09-12T07:44:26.016Z,4.1
2022-09-12T07:46:27.851Z,4.1
2022-09-12T07:50:30.941Z,4.11
2022-09-12T07:52:33.701Z,4.12
2022-09-12T07:54:34.658Z,4.13
2022-09-12T07:56:39.059Z,4.14
2022-09-12T07:58:37.511Z,4.14
2022-09-12T08:00:39.173Z,4.14
2022-09-12T08:04:41.577Z,4.14
2022-09-12T08:08:44.231Z,4.15
2022-09-12T08:12:46.386Z,4.16
2022-09-12T08:16:48.686Z,4.16
2022-09-12T08:18:50.175Z,4.16
2022-09-12T08:22:52.254Z,4.17
2022-09-12T08:24:53.917Z,4.17
2022-09-12T08:26:55.200Z,4.17
2022-09-12T08:28:56.744Z,4.18
2022-09-12T08:30:57.853Z,4.18
2022-09-12T08:32:58.640Z,4.18
2022-09-12T08:35:00.168Z,4.18
2022-09-12T08:37:01.930Z,4.19
2022-09-12T08:39:02.778Z,4.18
2022-09-12T08:41:04.072Z,4.19
2022-09-12T08:43:05.751Z,4.19
2022-09-12T08:45:07.683Z,4.19
2022-09-12T08:49:09.883Z,4.19
2022-09-12T08:51:11.407Z,4.19
2022-09-12T08:53:12.803Z,4.19
2022-09-12T08:57:15.523Z,4.19
2022-09-12T08:59:17.168Z,4.2
2022-09-12T09:01:18.636Z,4.2
2022-09-12T09:03:19.643Z,4.19
2022-09-12T09:05:20.553Z,4.19
2022-09-12T09:07:21.561Z,4.2
2022-09-12T09:09:22.874Z,4.2
2022-09-12T09:11:24.449Z,4.2
2022-09-12T09:15:28.330Z,4.2
2022-09-12T09:17:30.017Z,4.2
2022-09-12T09:19:31.254Z,4.2
2022-09-12T09:21:32.660Z,4.2
2022-09-12T09:23:34.239Z,4.2
2022-09-12T09:25:35.394Z,4.2
2022-09-12T09:27:40.733Z,4.2
2022-09-12T09:31:38.019Z,4.2
2022-09-12T09:33:39.208Z,4.2
2022-09-12T09:35:40.548Z,4.2
2022-09-12T09:39:42.889Z,4.2
2022-09-12T09:41:44.186Z,4.2
2022-09-12T09:43:45.906Z,4.2
2022-09-12T09:47:48.289Z,4.19
2022-09-12T09:49:49.602Z,4.19
2022-09-12T09:51:50.766Z,4.19
2022-09-12T09:53:52.235Z,4.19
2022-09-12T09:57:54.768Z,4.19
2022-09-12T09:59:56.277Z,4.19
2022-09-12T10:01:57.074Z,4.19
2022-09-12T10:03:58.396Z,4.19
2022-09-12T10:05:59.825Z,4.18
2022-09-12T10:08:01.226Z,4.19
2022-09-12T10:12:03.797Z,4.19
2022-09-12T10:14:05.139Z,4.18
2022-09-12T10:16:06.865Z,4.19
2022-09-12T10:18:08.230Z,4.19
2022-09-12T10:20:20.840Z,4.18
2022-09-12T10:24:11.603Z,4.18
2022-09-12T10:26:12.997Z,4.18
2022-09-12T10:28:14.229Z,4.18
2022-09-12T10:30:15.930Z,4.18
2022-09-12T10:32:17.253Z,4.18
2022-09-12T10:34:18.726Z,4.18
2022-09-12T10:38:20.527Z,4.18
2022-09-12T10:42:23.775Z,4.18
2022-09-12T10:46:27.477Z,4.18
2022-09-12T10:48:29.090Z,4.18
2022-09-12T10:50:30.627Z,4.18
2022-09-12T10:52:32.368Z,4.18
2022-09-12T10:56:35.084Z,4.18
2022-09-12T10:58:35.890Z,4.18
2022-09-12T11:00:36.878Z,4.18
2022-09-12T11:02:37.706Z,4.18
2022-09-12T11:04:38.803Z,4.18
2022-09-12T11:06:40.196Z,4.17
2022-09-12T11:08:41.361Z,4.18
2022-09-12T11:12:43.717Z,4.17
2022-09-12T11:14:45.480Z,4.18
2022-09-12T11:16:46.525Z,4.17
2022-09-12T11:18:47.484Z,4.17
2022-09-12T11:22:50.859Z,4.17
2022-09-12T11:24:52.578Z,4.17
2022-09-12T11:26:53.459Z,4.17
2022-09-12T11:28:54.545Z,4.17
2022-09-12T11:30:56.168Z,4.17
2022-09-12T11:32:57.382Z,4.17
2022-09-12T11:34:58.761Z,4.17
2022-09-12T11:39:01.983Z,4.17
2022-09-12T11:41:03.302Z,4.17
2022-09-12T11:43:04.140Z,4.17
2022-09-12T11:45:05.501Z,4.17
2022-09-12T11:47:06.675Z,4.17
2022-09-12T11:49:07.893Z,4.17
2022-09-12T11:51:08.682Z,4.17
2022-09-12T11:53:10.453Z,4.17
2022-09-12T11:55:11.579Z,4.17
2022-09-12T11:59:13.458Z,4.17
2022-09-12T12:01:14.998Z,4.17
2022-09-12T12:03:16.360Z,4.17
2022-09-12T12:05:17.774Z,4.16
2022-09-12T12:07:18.813Z,4.17
2022-09-12T12:09:19.797Z,4.17
2022-09-12T12:11:21.152Z,4.16
2022-09-12T12:13:22.670Z,4.17
2022-09-12T12:15:23.658Z,4.17
2022-09-12T12:17:25.360Z,4.17
2022-09-12T12:21:27.825Z,4.16
2022-09-12T12:23:29.333Z,4.16
2022-09-12T12:27:31.987Z,4.16
2022-09-12T12:29:32.827Z,4.16
2022-09-12T12:31:34.394Z,4.16
2022-09-12T12:33:35.832Z,4.16
2022-09-12T12:37:38.287Z,4.16
2022-09-12T12:39:39.360Z,4.16
2022-09-12T12:41:41.079Z,4.16
2022-09-12T12:45:43.947Z,4.16
2022-09-12T12:47:45.282Z,4.16
2022-09-12T12:49:46.484Z,4.16
2022-09-12T12:53:49.172Z,4.16
2022-09-12T12:55:50.619Z,4.16
2022-09-12T12:57:51.455Z,4.16
2022-09-12T12:59:52.342Z,4.16
2022-09-12T13:03:55.371Z,4.16
2022-09-12T13:05:56.711Z,4.16
2022-09-12T13:07:57.605Z,4.16
2022-09-12T13:09:58.435Z,4.16
2022-09-12T13:11:59.537Z,4.16
2022-09-12T13:14:00.567Z,4.16
2022-09-12T13:16:01.453Z,4.16
2022-09-12T13:20:24.017Z,4.16
2022-09-12T13:22:05.246Z,4.16
2022-09-12T13:24:06.649Z,4.16
2022-09-12T13:26:07.638Z,4.16
2022-09-12T13:28:09.062Z,4.16
2022-09-12T13:32:55.704Z,4.15
2022-09-12T13:34:56.724Z,4.15
2022-09-12T13:36:57.913Z,4.15
2022-09-12T13:40:59.989Z,4.15
2022-09-12T13:43:01.682Z,4.15
2022-09-12T13:45:03.105Z,4.15
2022-09-12T13:49:05.526Z,4.15
2022-09-12T13:51:07.069Z,4.15
2022-09-12T13:53:08.501Z,4.15
2022-09-12T13:57:11.141Z,4.15
2022-09-12T13:59:12.487Z,4.15
2022-09-12T14:01:13.766Z,4.15
2022-09-12T14:03:14.680Z,4.15
2022-09-12T14:05:15.768Z,4.15
2022-09-12T14:07:16.873Z,4.15
2022-09-12T14:09:21.848Z,4.15
2022-09-12T14:13:21.107Z,4.15
2022-09-12T14:15:22.636Z,4.15
2022-09-12T14:17:23.984Z,4.15
2022-09-12T14:19:24.790Z,4.15
2022-09-12T14:21:25.980Z,4.14
2022-09-12T14:23:26.992Z,4.15
2022-09-12T14:25:28.463Z,4.14
2022-09-12T14:31:32.170Z,4.15
2022-09-12T14:33:33.374Z,4.14
2022-09-12T14:35:34.938Z,4.15
2022-09-12T14:39:38.144Z,4.14
2022-09-12T14:41:39.580Z,4.14
2022-09-12T14:45:41.892Z,4.14
2022-09-12T14:47:43.012Z,4.14
2022-09-12T14:49:44.706Z,4.14
2022-09-12T14:51:48.216Z,4.14
2022-09-12T14:55:48.127Z,4.17
2022-09-12T14:57:49.190Z,4.17
2022-09-12T14:59:50.940Z,4.17
2022-09-12T15:01:52.242Z,4.18
2022-09-12T15:03:53.705Z,4.18
2022-09-12T15:05:55.177Z,4.18
2022-09-12T15:11:58.576Z,4.19
2022-09-12T15:14:00.134Z,4.19
2022-09-12T15:16:01.731Z,4.19
2022-09-12T15:18:06.310Z,4.19
2022-09-12T15:22:04.523Z,4.19
2022-09-12T15:24:05.317Z,4.19
2022-09-12T15:28:08.442Z,4.2
2022-09-12T15:30:09.204Z,4.2
2022-09-12T15:32:10.471Z,4.2
2022-09-12T15:34:11.717Z,4.19
2022-09-12T15:38:14.903Z,4.19
2022-09-12T15:40:16.217Z,4.2
2022-09-12T15:42:17.201Z,4.2
2022-09-12T15:44:18.443Z,4.2
2022-09-12T15:46:20.073Z,4.2
2022-09-12T15:48:21.342Z,4.2
2022-09-12T15:50:22.939Z,4.2
2022-09-12T15:54:25.136Z,4.2
2022-09-12T15:56:26.274Z,4.2
2022-09-12T15:58:27.827Z,4.2
2022-09-12T16:00:28.644Z,4.2
2022-09-12T16:02:29.573Z,4.19
2022-09-12T16:04:31.247Z,4.19
2022-09-12T16:06:36.362Z,4.19
2022-09-12T16:10:35.088Z,4.19
2022-09-12T16:12:35.911Z,4.19
2022-09-12T16:14:37.029Z,4.19
2022-09-12T16:16:38.671Z,4.19
2022-09-12T16:20:40.917Z,4.19
2022-09-12T16:22:42.518Z,4.19
2022-09-12T16:26:45.037Z,4.19
2022-09-12T16:28:46.587Z,4.19
2022-09-12T16:30:47.819Z,4.18
2022-09-12T16:32:49.574Z,4.19
2022-09-12T16:36:52.084Z,4.18
2022-09-12T16:38:53.678Z,4.19
2022-09-12T16:42:55.784Z,4.18
2022-09-12T16:44:57.187Z,4.18
2022-09-12T16:46:58.029Z,4.18
2022-09-12T16:48:58.897Z,4.18
2022-09-12T16:53:01.150Z,4.18
2022-09-12T16:55:02.925Z,4.18
2022-09-12T16:57:03.983Z,4.18
2022-09-12T16:59:05.767Z,4.18
2022-09-12T17:03:09.228Z,4.18
2022-09-12T17:05:10.124Z,4.18
2022-09-12T17:09:12.950Z,4.18
2022-09-12T17:11:13.869Z,4.18
2022-09-12T17:13:14.716Z,4.17
2022-09-12T17:15:16.194Z,4.18
2022-09-12T17:19:18.785Z,4.18
2022-09-12T17:21:19.763Z,4.17
2022-09-12T17:23:21.287Z,4.18
2022-09-12T17:25:23.082Z,4.18
2022-09-12T17:27:24.791Z,4.17
2022-09-12T17:29:25.863Z,4.17
2022-09-12T17:33:28.758Z,4.18
2022-09-12T17:35:29.732Z,4.17
2022-09-12T17:37:30.766Z,4.17
2022-09-12T17:39:32.189Z,4.17
2022-09-12T17:41:33.917Z,4.17
2022-09-12T17:43:35.553Z,4.17
2022-09-12T17:45:36.729Z,4.17
2022-09-12T17:47:38.197Z,4.17
2022-09-12T17:51:40.920Z,4.17
2022-09-12T17:53:42.275Z,4.17
2022-09-12T17:55:43.157Z,4.17
2022-09-12T17:57:44.209Z,4.17
2022-09-12T18:01:46.838Z,4.17
2022-09-12T18:03:48.230Z,4.17
2022-09-12T18:05:49.415Z,4.17
2022-09-12T18:07:50.977Z,4.17
2022-09-12T18:09:52.544Z,4.17
2022-09-12T18:11:54.348Z,4.17
2022-09-12T18:13:55.783Z,4.17
2022-09-12T18:17:58.523Z,4.17
2022-09-12T18:19:59.674Z,4.17
2022-09-12T18:24:01.919Z,4.16
2022-09-12T18:26:02.827Z,4.16
2022-09-12T18:28:06.119Z,4.17
2022-09-12T18:30:20.425Z,4.16
2022-09-12T18:34:07.599Z,4.17
2022-09-12T18:36:08.985Z,4.17
2022-09-12T18:38:10.631Z,4.16
2022-09-12T18:40:11.832Z,4.16
2022-09-12T18:44:14.632Z,4.16
2022-09-12T18:46:15.700Z,4.16
2022-09-12T18:48:16.663Z,4.16
2022-09-12T18:50:18.030Z,4.16
2022-09-12T18:52:19.242Z,4.16
2022-09-12T18:54:20.311Z,4.16
2022-09-12T18:56:22.143Z,4.16
2022-09-12T19:00:24.839Z,4.16
2022-09-12T19:02:25.697Z,4.16
2022-09-12T19:04:27.070Z,4.16
2022-09-12T19:06:28.622Z,4.16
2022-09-12T19:08:30.344Z,4.16
2022-09-12T19:10:31.643Z,4.16
2022-09-12T19:12:32.626Z,4.16
2022-09-12T19:14:33.947Z,4.16
2022-09-12T19:16:35.533Z,4.16
2022-09-12T19:18:36.448Z,4.16
2022-09-12T19:20:38.247Z,4.16
2022-09-12T19:22:39.658Z,4.16
2022-09-12T19:24:40.638Z,4.16
2022-09-12T19:26:42.390Z,4.16
2022-09-12T19:28:43.294Z,4.16
2022-09-12T19:32:46.186Z,4.16
2022-09-12T19:34:47.056Z,4.15
2022-09-12T19:36:48.832Z,4.16
2022-09-12T19:38:49.839Z,4.16
2022-09-12T19:42:52.598Z,4.16
2022-09-12T19:44:54.305Z,4.16
2022-09-12T19:48:56.970Z,4.15
2022-09-12T19:50:58.166Z,4.16
2022-09-12T19:52:59.819Z,4.15
2022-09-12T19:55:01.051Z,4.15
2022-09-12T19:57:02.289Z,4.15
2022-09-12T19:59:03.466Z,4.15
2022-09-12T20:01:04.824Z,4.15
2022-09-12T20:03:06.261Z,4.15
2022-09-12T20:05:07.586Z,4.15
2022-09-12T20:07:09.247Z,4.15
2022-09-12T20:09:10.687Z,4.15
2022-09-12T20:13:14.082Z,4.15
2022-09-12T20:13:57.871Z,4.15
2022-09-12T20:15:59.753Z,4.15
2022-09-12T20:18:00.689Z,4.15
2022-09-12T20:20:02.198Z,4.15
2022-09-12T20:24:04.982Z,4.15
2022-09-12T20:26:05.914Z,4.14
2022-09-12T20:28:06.870Z,4.15
2022-09-12T20:30:08.330Z,4.14
2022-09-12T20:32:10.042Z,4.14
2022-09-12T20:34:11.899Z,4.15
2022-09-12T20:36:13.008Z,4.15
2022-09-12T20:40:15.032Z,4.14
2022-09-12T20:42:15.940Z,4.14
2022-09-12T20:44:17.424Z,4.14
2022-09-12T20:46:21.538Z,4.14
2022-09-12T20:50:21.656Z,4.14
2022-09-12T20:52:22.787Z,4.14
2022-09-12T20:54:24.381Z,4.14
2022-09-12T20:56:25.700Z,4.14
2022-09-12T20:58:27.224Z,4.14
2022-09-12T21:00:28.587Z,4.14
2022-09-12T21:02:30.269Z,4.14
2022-09-12T21:06:32.279Z,4.14
2022-09-12T21:08:33.386Z,4.14
2022-09-12T21:12:36.343Z,4.14
2022-09-12T21:14:37.811Z,4.14
2022-09-12T21:16:38.884Z,4.14
2022-09-12T21:18:40.233Z,4.14
2022-09-12T21:22:42.778Z,4.14
2022-09-12T21:24:44.163Z,4.14
2022-09-12T21:26:45.537Z,4.14
2022-09-12T21:28:47.152Z,4.14
2022-09-12T21:30:48.785Z,4.14
2022-09-12T21:32:50.405Z,4.14
2022-09-12T21:34:51.555Z,4.14
2022-09-12T21:38:54.356Z,4.14
2022-09-12T21:40:55.292Z,4.14
2022-09-12T21:42:56.340Z,4.14
2022-09-12T21:44:57.319Z,4.13
2022-09-12T21:49:00.204Z,4.13
2022-09-12T21:51:01.930Z,4.13
2022-09-12T21:53:02.867Z,4.14
2022-09-12T21:55:04.386Z,4.13
2022-09-12T21:57:06.250Z,4.13
2022-09-12T21:59:07.425Z,4.13
2022-09-12T22:03:10.291Z,4.13
2022-09-12T22:07:12.548Z,4.13
2022-09-12T22:11:15.723Z,4.13
2022-09-12T22:13:16.863Z,4.13
2022-09-12T22:15:39.288Z,4.13
2022-09-12T22:17:19.852Z,4.13
2022-09-12T22:21:22.211Z,4.13
2022-09-12T22:23:24.943Z,4.13
2022-09-12T22:25:25.134Z,4.13
2022-09-12T22:27:26.115Z,4.13
2022-09-12T22:31:29.231Z,4.13
2022-09-12T22:33:30.972Z,4.13
2022-09-12T22:37:33.364Z,4.13
2022-09-12T22:39:34.503Z,4.13
2022-09-12T22:41:36.333Z,4.12
2022-09-12T22:43:37.500Z,4.13
2022-09-12T22:47:40.040Z,4.12
2022-09-12T22:49:41.727Z,4.13
2022-09-12T22:51:42.837Z,4.12
2022-09-12T22:53:44.025Z,4.13
2022-09-12T22:55:45.802Z,4.13
2022-09-12T22:57:47.475Z,4.12
2022-09-12T22:59:48.866Z,4.12
2022-09-12T23:01:50.617Z,4.12
2022-09-12T23:03:52.382Z,4.12
2022-09-12T23:05:53.683Z,4.12
2022-09-12T23:07:54.915Z,4.12
2022-09-12T23:09:56.729Z,4.12
2022-09-12T23:11:57.734Z,4.12
2022-09-12T23:13:59.324Z,4.12
2022-09-12T23:16:00.675Z,4.12
2022-09-12T23:20:03.299Z,4.12
2022-09-12T23:22:04.754Z,4.12
2022-09-12T23:24:06.434Z,4.12
2022-09-12T23:26:08.097Z,4.12
2022-09-12T23:30:11.085Z,4.12
2022-09-12T23:32:12.623Z,4.12
2022-09-12T23:36:16.118Z,4.12
2022-09-12T23:38:17.694Z,4.12
2022-09-12T23:40:19.379Z,4.12
2022-09-12T23:44:22.829Z,4.12
2022-09-12T23:46:24.564Z,4.12
2022-09-12T23:48:26.312Z,4.12
2022-09-12T23:50:27.951Z,4.12
2022-09-12T23:52:29.807Z,4.12
2022-09-12T23:56:33.018Z,4.12
2022-09-12T23:58:34.346Z,4.11
